Aérodrome :
LOGIN :

S'inscrire | Disclaimer

   EN    FR    IT 

 










Légende :    VFR   VFR Marginal   IFR   IFR Intensif   IFR Très Intensif
Visi : 
Plafond : 
>= 8 km
>= 3000ft
5 à 8 km
1000 à 3000 ft
1500m à 5 km
500 à 1000 ft
800 à 1500m
200 à 500 ft
< 800m
< 200 ft
Symboles :   Orages  Brouillard  Fortes neiges  Fortes précipitations  Vent > 20 kt
SIGMETs :   Divers  Orages  Givrage  Turbulence  Onde Orograph.  Cendres Volcan.







- Altitude de l'aérodrome : 1276 ft
- Code IATA : STR


EDDS - Stuttgart

DERNIER METAR :
  • 160220Z VRB02KT 9999 FEW040CB BKN095 17/13 Q1015

METARs EXPIRÉS :
  • 160150Z VRB01KT 9999 FEW040 BKN110 17/13 Q1015
  • 160120Z 29003KT 9999 FEW040CB SCT075 BKN100 17/13 Q1015
  • 160050Z 29002KT 9999 FEW040CB SCT085 BKN110 17/13 Q1015
  • 160020Z 06001KT 9999 FEW040CB BKN083 BKN110 17/13 Q1015
  • 152350Z VRB01KT 9999 FEW040CB SCT080 BKN100 18/13 Q1015

TAF TAF EDDS
Valide du 16 à 00h jusqu'au 17 à 00h UTC


152300Z 1600/1624 VRB03KT CAVOK
TEMPO 1600/1607 SHRA SCT045CB
PROB30
TEMPO 1600/1606 TSRA SCT040CB
PROB40
TEMPO 1612/1619 TSRA SCT045CB
BECMG 1613/1616 34005KT
Pas de NOTAMs connus pour ce terrain.



MET'MAP, la Météo Aéronautique d'un coup d'oeil ! - Copyright ORBIFLY Décembre 2007 - Disclaimer

ORBIFLY MET'MAP TEAM :

Programmation & Développement : Alexandra Zaïnal
Conception & Développement : Baudouin d'Aumeries
Co-Programmation & Développement : Marc-Olivier Méhu
Soutien technique & logistique : Manuel Goepfert

Contact : metmap@orbifly.com




SOURCES & CREDITS :

   NOAA